createdAt,value
2023-05-20T00:02:42.905Z,6.00
2023-05-20T00:07:45.886Z,7.07
2023-05-20T00:12:48.599Z,6.03
2023-05-20T00:17:51.515Z,6.22
2023-05-20T00:22:54.311Z,6.72
2023-05-20T00:27:57.236Z,6.38
2023-05-20T00:33:00.043Z,6.32
2023-05-20T00:38:02.821Z,6.20
2023-05-20T00:43:05.527Z,6.97
2023-05-20T00:48:10.101Z,6.38
2023-05-20T00:53:13.224Z,6.15
2023-05-20T00:58:16.207Z,5.20
2023-05-20T01:03:19.064Z,6.20
2023-05-20T01:08:26.395Z,6.68
2023-05-20T01:13:34.622Z,5.50
2023-05-20T01:18:39.630Z,5.47
2023-05-20T01:23:42.678Z,5.97
2023-05-20T01:28:45.441Z,6.17
2023-05-20T01:33:52.244Z,5.55
2023-05-20T01:38:56.338Z,6.88
2023-05-20T01:43:59.461Z,6.70
2023-05-20T01:49:02.532Z,6.38
2023-05-20T01:54:05.309Z,7.47
2023-05-20T01:59:08.071Z,6.90
2023-05-20T02:04:10.958Z,6.90
2023-05-20T02:09:13.907Z,6.70
2023-05-20T02:14:16.670Z,7.40
2023-05-20T02:19:24.083Z,7.43
2023-05-20T02:24:26.933Z,7.50
2023-05-20T02:29:29.721Z,8.52
2023-05-20T02:34:33.349Z,7.55
2023-05-20T02:39:36.114Z,9.50
2023-05-20T02:44:38.863Z,8.60
2023-05-20T02:49:41.797Z,8.50
2023-05-20T02:54:44.743Z,8.30
2023-05-20T02:59:48.160Z,10.02
2023-05-20T03:04:51.073Z,9.23
2023-05-20T03:09:54.039Z,9.53
2023-05-20T03:14:56.777Z,9.02
2023-05-20T03:19:59.603Z,9.55
2023-05-20T03:25:02.633Z,8.35
2023-05-20T03:30:07.746Z,8.88
2023-05-20T03:35:10.662Z,8.80
2023-05-20T03:40:14.533Z,7.82
2023-05-20T03:45:17.653Z,7.70
2023-05-20T03:50:41.444Z,8.80
2023-05-20T03:55:44.257Z,8.48
2023-05-20T04:00:49.379Z,8.53
2023-05-20T04:05:52.334Z,8.95
2023-05-20T04:10:58.068Z,9.25
2023-05-20T04:16:02.249Z,9.68
2023-05-20T04:21:06.060Z,9.25
2023-05-20T04:26:09.019Z,9.33
2023-05-20T04:31:11.732Z,8.68
2023-05-20T04:36:16.746Z,10.27
2023-05-20T04:41:20.203Z,9.57
2023-05-20T04:46:23.036Z,8.77
2023-05-20T04:51:25.846Z,8.97
2023-05-20T04:56:28.648Z,10.57
2023-05-20T05:01:31.435Z,9.07
2023-05-20T05:06:34.494Z,9.45
2023-05-20T05:11:37.472Z,9.52
2023-05-20T05:16:40.359Z,9.37
2023-05-20T05:21:43.131Z,8.50
2023-05-20T05:26:46.064Z,8.43
2023-05-20T05:31:49.215Z,7.93
2023-05-20T05:36:52.821Z,8.35
2023-05-20T05:41:56.536Z,8.40
2023-05-20T05:47:00.587Z,8.75
2023-05-20T05:52:03.732Z,8.40
2023-05-20T05:57:08.013Z,7.95
2023-05-20T06:02:11.463Z,7.80
2023-05-20T06:07:14.288Z,8.77
2023-05-20T06:12:17.079Z,8.15
2023-05-20T06:17:20.330Z,8.40
2023-05-20T06:22:23.365Z,7.07
2023-05-20T06:27:26.936Z,7.97
2023-05-20T06:32:29.929Z,8.37
2023-05-20T06:37:34.051Z,7.72
2023-05-20T06:42:37.107Z,8.70
2023-05-20T06:47:41.269Z,8.10
2023-05-20T06:52:45.842Z,8.68
2023-05-20T06:57:49.572Z,8.13
2023-05-20T07:02:54.053Z,7.82
2023-05-20T07:07:57.085Z,8.45
2023-05-20T07:13:00.916Z,8.90
2023-05-20T07:18:03.857Z,9.07
2023-05-20T07:23:06.722Z,8.67
2023-05-20T07:28:18.124Z,7.32
2023-05-20T07:33:21.030Z,10.60
2023-05-20T07:38:24.669Z,9.32
2023-05-20T07:43:33.121Z,8.98
2023-05-20T07:48:37.561Z,8.27
2023-05-20T07:53:40.518Z,8.38
2023-05-20T07:58:43.476Z,7.03
2023-05-20T08:03:46.833Z,6.78
2023-05-20T08:08:54.742Z,6.50
2023-05-20T08:14:03.321Z,5.93
2023-05-20T08:19:12.768Z,7.03
2023-05-20T08:24:15.828Z,6.93
2023-05-20T08:29:19.497Z,6.80
2023-05-20T08:34:22.762Z,7.22
2023-05-20T08:39:27.576Z,6.53
2023-05-20T08:44:33.952Z,5.72
2023-05-20T08:49:36.826Z,7.75
2023-05-20T08:54:48.435Z,7.63
2023-05-20T08:59:51.857Z,6.70
2023-05-20T09:04:54.638Z,8.20
2023-05-20T09:09:58.166Z,5.90
2023-05-20T09:15:00.985Z,7.97
2023-05-20T09:20:11.135Z,8.02
2023-05-20T09:25:14.543Z,9.73
2023-05-20T09:30:21.363Z,8.70
2023-05-20T09:35:25.619Z,8.38
2023-05-20T09:40:29.555Z,8.73
2023-05-20T09:45:32.466Z,9.23
2023-05-20T09:50:35.964Z,9.02
2023-05-20T09:55:39.421Z,10.00
2023-05-20T10:00:42.379Z,10.23
2023-05-20T10:06:20.565Z,11.02
2023-05-20T10:11:47.275Z,11.30
2023-05-20T10:17:08.219Z,11.50
2023-05-20T10:22:12.269Z,10.90
2023-05-20T10:27:15.935Z,8.98
2023-05-20T10:32:26.963Z,12.07
2023-05-20T10:37:32.966Z,10.95
2023-05-20T10:42:35.804Z,9.52
2023-05-20T10:47:54.046Z,11.10
2023-05-20T10:53:09.480Z,11.43
2023-05-20T10:58:15.878Z,10.10
2023-05-20T11:03:19.030Z,11.20
2023-05-20T11:08:29.037Z,11.20
2023-05-20T11:13:32.425Z,11.77
2023-05-20T11:18:35.216Z,11.20
2023-05-20T11:23:39.965Z,9.23
2023-05-20T11:28:43.689Z,12.45
2023-05-20T11:33:47.199Z,12.00
2023-05-20T11:38:52.099Z,10.67
2023-05-20T11:44:01.508Z,12.95
2023-05-20T11:49:04.643Z,11.75
2023-05-20T11:54:08.874Z,11.95
2023-05-20T11:59:12.036Z,11.13
2023-05-20T12:04:15.305Z,8.40
2023-05-20T12:09:18.186Z,12.13
2023-05-20T12:14:21.035Z,10.20
2023-05-20T12:19:23.789Z,10.93
2023-05-20T12:24:26.787Z,12.20
2023-05-20T12:29:30.052Z,12.17
2023-05-20T12:34:33.508Z,11.57
2023-05-20T12:39:37.029Z,11.73
2023-05-20T12:44:39.794Z,12.85
2023-05-20T12:49:42.673Z,11.18
2023-05-20T12:54:45.481Z,11.93
2023-05-20T12:59:48.582Z,10.85
2023-05-20T13:04:51.612Z,10.60
2023-05-20T13:09:54.753Z,11.50
2023-05-20T13:14:57.527Z,12.18
2023-05-20T13:20:00.454Z,12.33
2023-05-20T13:25:04.606Z,11.70
2023-05-20T13:30:08.437Z,11.73
2023-05-20T13:35:13.298Z,10.40
2023-05-20T13:40:16.346Z,11.82
2023-05-20T13:45:19.344Z,10.50
2023-05-20T13:50:22.154Z,8.75
2023-05-20T13:55:25.172Z,10.40
2023-05-20T14:00:28.015Z,11.52
2023-05-20T14:05:32.885Z,9.00
2023-05-20T14:10:35.978Z,8.50
2023-05-20T14:15:39.087Z,9.48
2023-05-20T14:20:42.096Z,9.07
2023-05-20T14:25:45.347Z,9.55
2023-05-20T14:30:48.167Z,10.80
2023-05-20T14:35:51.562Z,9.57
2023-05-20T14:40:54.453Z,8.13
2023-05-20T14:45:57.428Z,7.60
2023-05-20T14:51:00.459Z,7.03
2023-05-20T14:56:03.692Z,8.15
2023-05-20T15:01:06.904Z,9.13
2023-05-20T15:06:09.835Z,9.25
2023-05-20T15:11:12.875Z,8.32
2023-05-20T15:16:15.908Z,8.90
2023-05-20T15:21:19.437Z,9.07
2023-05-20T15:26:22.464Z,9.43
2023-05-20T15:31:25.609Z,7.78
2023-05-20T15:36:28.446Z,7.63
2023-05-20T15:41:33.099Z,9.15
2023-05-20T15:46:36.219Z,7.50
2023-05-20T15:51:40.987Z,8.33
2023-05-20T15:56:44.114Z,8.80
2023-05-20T16:01:47.422Z,8.55
2023-05-20T16:06:50.427Z,9.15
2023-05-20T16:11:53.394Z,7.72
2023-05-20T16:16:57.131Z,7.47
2023-05-20T16:22:00.010Z,7.22
2023-05-20T16:27:02.997Z,7.60
2023-05-20T16:32:06.920Z,7.88
2023-05-20T16:37:10.739Z,7.65
2023-05-20T16:42:14.137Z,7.30
2023-05-20T16:47:18.706Z,7.30
2023-05-20T16:52:21.668Z,6.80
2023-05-20T16:57:24.736Z,6.43
2023-05-20T17:02:27.927Z,7.05
2023-05-20T17:07:31.064Z,7.10
2023-05-20T17:12:33.978Z,6.95
2023-05-20T17:17:37.132Z,7.68
2023-05-20T17:22:40.203Z,7.40
2023-05-20T17:27:43.376Z,8.18
2023-05-20T17:32:46.453Z,8.27
2023-05-20T17:37:49.528Z,7.88
2023-05-20T17:42:52.483Z,7.97
2023-05-20T17:47:55.483Z,7.70
2023-05-20T17:52:58.433Z,8.45
2023-05-20T17:58:02.242Z,9.20
2023-05-20T18:03:06.299Z,9.23
2023-05-20T18:08:09.476Z,8.70
2023-05-20T18:13:12.418Z,8.50
2023-05-20T18:18:15.368Z,8.75
2023-05-20T18:23:18.270Z,8.50
2023-05-20T18:28:21.306Z,8.63
2023-05-20T18:33:24.996Z,7.70
2023-05-20T18:38:27.936Z,7.93
2023-05-20T18:43:30.809Z,7.45
2023-05-20T18:48:33.874Z,7.30
2023-05-20T18:53:36.647Z,7.80
2023-05-20T18:58:39.725Z,7.07
2023-05-20T19:03:45.238Z,6.72
2023-05-20T19:08:49.470Z,7.38
2023-05-20T19:13:52.448Z,7.17
2023-05-20T19:18:55.435Z,6.80
2023-05-20T19:23:58.147Z,7.35
2023-05-20T19:29:01.082Z,7.10
2023-05-20T19:34:03.996Z,7.70
2023-05-20T19:39:08.150Z,7.10
2023-05-20T19:44:12.089Z,8.10
2023-05-20T19:49:15.073Z,7.90
2023-05-20T19:54:18.330Z,7.85
2023-05-20T19:59:21.525Z,8.73
2023-05-20T20:04:24.981Z,8.00
2023-05-20T20:09:28.299Z,8.75
2023-05-20T20:14:31.682Z,8.20
2023-05-20T20:19:35.015Z,8.32
2023-05-20T20:24:37.830Z,8.40
2023-05-20T20:29:43.403Z,8.80
2023-05-20T20:34:46.323Z,9.23
2023-05-20T20:39:50.345Z,8.52
2023-05-20T20:44:53.146Z,9.32
2023-05-20T20:49:56.887Z,8.82
2023-05-20T20:55:00.029Z,8.60
2023-05-20T21:00:13.386Z,8.40
2023-05-20T21:05:18.967Z,8.80
2023-05-20T21:10:21.868Z,9.15
2023-05-20T21:15:26.165Z,9.10
2023-05-20T21:20:29.012Z,9.37
2023-05-20T21:25:31.879Z,9.25
2023-05-20T21:30:34.585Z,9.07
2023-05-20T21:35:37.801Z,8.35
2023-05-20T21:40:41.557Z,10.00
2023-05-20T21:45:44.405Z,9.87
2023-05-20T21:50:47.157Z,10.02
2023-05-20T21:55:50.015Z,10.73
2023-05-20T22:00:53.128Z,9.90
2023-05-20T22:05:56.487Z,11.35
2023-05-20T22:11:01.501Z,11.10
2023-05-20T22:16:05.208Z,11.43
2023-05-20T22:21:08.190Z,11.50
2023-05-20T22:26:10.970Z,11.40
2023-05-20T22:31:13.800Z,11.25
2023-05-20T22:36:16.722Z,11.97
2023-05-20T22:41:19.521Z,11.90
2023-05-20T22:46:22.622Z,11.23
2023-05-20T22:51:25.626Z,11.25
2023-05-20T22:56:29.795Z,11.63
2023-05-20T23:01:33.147Z,9.60
2023-05-20T23:06:38.340Z,10.98
2023-05-20T23:11:41.029Z,11.57
2023-05-20T23:16:44.166Z,10.93
2023-05-20T23:21:46.923Z,10.38
2023-05-20T23:26:49.620Z,11.33
2023-05-20T23:31:52.320Z,11.88
2023-05-20T23:36:55.507Z,10.52
2023-05-20T23:41:58.249Z,11.25
2023-05-20T23:47:01.757Z,11.43
2023-05-20T23:52:04.707Z,10.93
2023-05-20T23:57:10.542Z,10.40
